createdAt,value
2018-04-06T00:01:11.206Z,2.70
2018-04-06T00:03:44.276Z,2.70
2018-04-06T00:06:18.017Z,2.80
2018-04-06T00:08:52.118Z,2.70
2018-04-06T00:11:26.879Z,2.70
2018-04-06T00:13:59.621Z,2.80
2018-04-06T00:16:34.623Z,2.80
2018-04-06T00:19:07.369Z,2.80
2018-04-06T00:21:40.183Z,2.80
2018-04-06T00:24:17.432Z,2.80
2018-04-06T00:26:56.429Z,2.80
2018-04-06T00:29:29.537Z,2.80
2018-04-06T00:32:02.444Z,2.70
2018-04-06T00:34:35.746Z,2.80
2018-04-06T00:37:09.769Z,2.70
2018-04-06T00:39:42.846Z,2.70
2018-04-06T00:42:35.541Z,2.70
2018-04-06T00:47:51.321Z,2.70
2018-04-06T00:50:24.070Z,2.60
2018-04-06T00:52:57.571Z,2.60
2018-04-06T00:55:30.311Z,2.60
2018-04-06T00:58:03.042Z,2.60
2018-04-06T01:00:35.841Z,2.60
2018-04-06T01:03:08.572Z,2.60
2018-04-06T01:05:41.321Z,2.60
2018-04-06T01:08:14.825Z,2.50
2018-04-06T01:10:48.622Z,2.50
2018-04-06T01:13:22.124Z,2.40
2018-04-06T01:15:55.634Z,2.40
2018-04-06T01:18:28.373Z,2.40
2018-04-06T01:21:01.122Z,2.40
2018-04-06T01:23:34.869Z,2.50
2018-04-06T01:26:07.655Z,2.50
2018-04-06T01:28:41.155Z,2.50
2018-04-06T01:31:14.864Z,2.40
2018-04-06T01:33:49.344Z,2.40
2018-04-06T01:36:24.039Z,2.40
2018-04-06T01:38:56.784Z,2.50
2018-04-06T01:41:36.680Z,2.50
2018-04-06T01:44:09.416Z,2.40
2018-04-06T01:46:42.188Z,2.50
2018-04-06T01:49:15.688Z,2.50
2018-04-06T01:51:50.181Z,2.60
2018-04-06T01:54:22.912Z,2.60
2018-04-06T01:57:03.089Z,2.60
2018-04-06T01:59:35.824Z,2.70
2018-04-06T02:02:09.386Z,2.60
2018-04-06T02:04:46.070Z,2.60
2018-04-06T02:07:18.810Z,2.60
2018-04-06T02:09:51.529Z,2.50
2018-04-06T02:12:28.716Z,2.60
2018-04-06T02:15:01.473Z,2.50
2018-04-06T02:17:34.201Z,2.60
2018-04-06T02:20:06.934Z,2.50
2018-04-06T02:22:40.637Z,2.50
2018-04-06T02:25:13.370Z,2.40
2018-04-06T02:27:55.811Z,2.40
2018-04-06T02:30:28.550Z,2.40
2018-04-06T02:33:01.285Z,2.40
2018-04-06T02:35:34.169Z,2.40
2018-04-06T02:38:06.895Z,2.40
2018-04-06T02:40:39.625Z,2.30
2018-04-06T02:43:13.387Z,2.40
2018-04-06T02:45:46.128Z,2.40
2018-04-06T02:48:18.862Z,2.40
2018-04-06T02:50:51.598Z,2.50
2018-04-06T02:53:25.097Z,2.40
2018-04-06T02:55:58.925Z,2.40
2018-04-06T02:58:31.672Z,2.40
2018-04-06T03:01:05.173Z,2.40
2018-04-06T03:03:38.676Z,2.40
2018-04-06T03:06:12.177Z,2.40
2018-04-06T03:08:44.901Z,2.40
2018-04-06T03:11:18.630Z,2.50
2018-04-06T03:13:51.357Z,2.60
2018-04-06T03:16:24.102Z,2.70
2018-04-06T03:18:57.598Z,2.80
2018-04-06T03:21:31.095Z,2.90
2018-04-06T03:24:04.619Z,2.90
2018-04-06T03:26:41.150Z,2.80
2018-04-06T03:29:13.906Z,2.90
2018-04-06T03:31:46.639Z,2.90
2018-04-06T03:34:19.372Z,2.90
2018-04-06T03:36:52.114Z,2.90
2018-04-06T03:39:24.853Z,2.90
2018-04-06T03:41:59.414Z,2.90
2018-04-06T03:44:34.884Z,2.80
2018-04-06T03:47:07.612Z,2.80
2018-04-06T03:49:41.123Z,2.80
2018-04-06T03:52:13.858Z,2.80
2018-04-06T03:54:46.599Z,2.80
2018-04-06T03:57:21.412Z,2.80
2018-04-06T03:59:54.158Z,2.70
2018-04-06T04:02:27.867Z,2.70
2018-04-06T04:05:01.423Z,2.80
2018-04-06T04:07:34.176Z,2.70
2018-04-06T04:10:07.873Z,2.80
2018-04-06T04:12:53.347Z,2.80
2018-04-06T04:15:26.090Z,2.80
2018-04-06T04:17:58.849Z,2.80
2018-04-06T04:20:31.582Z,2.80
2018-04-06T04:23:04.319Z,2.80
2018-04-06T04:25:37.057Z,2.70
2018-04-06T04:28:13.266Z,2.60
2018-04-06T04:30:45.995Z,2.60
2018-04-06T04:33:18.723Z,2.60
2018-04-06T04:35:51.469Z,2.60
2018-04-06T04:38:24.216Z,2.60
2018-04-06T04:40:56.946Z,2.50
2018-04-06T04:43:32.566Z,2.60
2018-04-06T04:46:05.296Z,2.70
2018-04-06T04:48:39.772Z,2.70
2018-04-06T04:51:12.497Z,2.70
2018-04-06T04:53:45.236Z,2.70
2018-04-06T04:56:17.971Z,2.80
2018-04-06T04:58:51.487Z,2.90
2018-04-06T05:01:24.217Z,2.90
2018-04-06T05:03:56.974Z,3.00
2018-04-06T05:06:29.714Z,3.00
2018-04-06T05:09:02.455Z,3.10
2018-04-06T05:11:35.196Z,3.10
2018-04-06T05:14:15.515Z,3.20
2018-04-06T05:16:49.046Z,3.20
2018-04-06T05:19:21.773Z,3.20
2018-04-06T05:21:54.506Z,3.20
2018-04-06T05:24:27.306Z,3.30
2018-04-06T05:27:00.028Z,3.40
2018-04-06T05:29:33.543Z,3.50
2018-04-06T05:32:06.296Z,3.40
2018-04-06T05:34:39.025Z,3.50
2018-04-06T05:37:11.760Z,3.50
2018-04-06T05:39:45.268Z,3.60
2018-04-06T05:42:20.831Z,3.70
2018-04-06T05:44:53.573Z,3.70
2018-04-06T05:47:26.331Z,3.80
2018-04-06T05:49:59.059Z,3.80
2018-04-06T05:52:32.559Z,3.80
2018-04-06T05:55:05.303Z,3.80
2018-04-06T05:57:38.094Z,3.90
2018-04-06T06:00:10.824Z,4.00
2018-04-06T06:02:43.557Z,4.10
2018-04-06T06:05:16.304Z,4.20
2018-04-06T06:07:49.055Z,4.30
2018-04-06T06:10:21.861Z,4.30
2018-04-06T06:12:54.601Z,4.40
2018-04-06T06:15:27.337Z,4.50
2018-04-06T06:18:01.046Z,4.60
2018-04-06T06:20:33.798Z,4.70
2018-04-06T06:23:06.521Z,4.70
2018-04-06T06:25:39.256Z,4.70
2018-04-06T06:28:19.412Z,4.80
2018-04-06T06:30:52.151Z,4.80
2018-04-06T06:33:24.880Z,4.80
2018-04-06T06:35:57.615Z,4.90
2018-04-06T06:38:30.346Z,4.90
2018-04-06T06:41:04.058Z,5.00
2018-04-06T06:43:36.863Z,5.00
2018-04-06T06:46:09.592Z,5.30
2018-04-06T06:48:42.347Z,5.40
2018-04-06T06:51:15.078Z,5.50
2018-04-06T06:53:47.805Z,6.40
2018-04-06T06:56:20.533Z,7.20
2018-04-06T06:59:00.859Z,8.10
2018-04-06T07:01:33.585Z,9.00
2018-04-06T07:04:07.096Z,9.90
2018-04-06T07:06:39.839Z,9.90
2018-04-06T07:09:12.577Z,9.90
2018-04-06T07:11:45.312Z,9.90
2018-04-06T07:14:32.045Z,10.40
2018-04-06T07:17:04.791Z,10.40
2018-04-06T07:19:38.315Z,11.20
2018-04-06T07:22:11.054Z,11.20
2018-04-06T07:24:43.795Z,11.60
2018-04-06T07:27:16.536Z,11.60
2018-04-06T07:29:53.318Z,11.70
2018-04-06T07:32:26.837Z,11.70
2018-04-06T07:35:00.339Z,12.20
2018-04-06T07:37:33.074Z,12.20
2018-04-06T07:40:05.849Z,12.70
2018-04-06T07:42:38.639Z,12.90
2018-04-06T07:45:12.151Z,13.30
2018-04-06T07:47:46.601Z,13.40
2018-04-06T07:50:19.360Z,13.40
2018-04-06T07:52:52.096Z,13.40
2018-04-06T07:55:24.827Z,13.50
2018-04-06T07:57:57.673Z,13.30
2018-04-06T08:00:30.550Z,13.20
2018-04-06T08:03:03.550Z,13.20
2018-04-06T08:05:37.047Z,13.50
2018-04-06T08:08:12.509Z,13.50
2018-04-06T08:10:47.436Z,13.50
2018-04-06T08:13:24.690Z,13.50
2018-04-06T08:16:01.381Z,13.60
2018-04-06T08:18:39.590Z,13.60
2018-04-06T08:21:13.511Z,13.70
2018-04-06T08:23:46.267Z,13.60
2018-04-06T08:26:19.807Z,14.30
2018-04-06T08:28:58.513Z,14.20
2018-04-06T08:31:31.242Z,14.70
2018-04-06T08:34:05.705Z,14.70
2018-04-06T08:36:38.561Z,14.40
2018-04-06T08:39:12.169Z,14.40
2018-04-06T08:41:44.905Z,14.30
2018-04-06T08:44:28.037Z,14.80
2018-04-06T08:47:00.785Z,14.40
2018-04-06T08:49:33.526Z,14.80
2018-04-06T08:52:07.041Z,14.90
2018-04-06T08:54:43.373Z,14.80
2018-04-06T08:57:16.154Z,14.80
2018-04-06T08:59:48.955Z,14.80
2018-04-06T09:02:24.440Z,15.10
2018-04-06T09:04:57.173Z,15.00
2018-04-06T09:07:31.639Z,15.70
2018-04-06T09:10:05.322Z,15.60
2018-04-06T09:12:38.070Z,15.80
2018-04-06T09:15:25.066Z,16.20
2018-04-06T09:17:57.821Z,16.20
2018-04-06T09:20:30.558Z,15.50
2018-04-06T09:23:03.313Z,15.40
2018-04-06T09:25:36.053Z,15.40
2018-04-06T09:28:08.789Z,16.30
2018-04-06T09:30:55.002Z,16.50
2018-04-06T09:33:27.735Z,16.50
2018-04-06T09:36:06.377Z,16.80
2018-04-06T09:38:39.888Z,17.30
2018-04-06T09:41:21.259Z,17.30
2018-04-06T09:43:54.077Z,17.00
2018-04-06T09:46:31.799Z,17.10
2018-04-06T09:49:04.618Z,16.50
2018-04-06T09:51:38.121Z,17.40
2018-04-06T09:54:11.551Z,17.40
2018-04-06T09:56:44.293Z,17.40
2018-04-06T09:59:17.799Z,18.00
2018-04-06T10:01:52.097Z,18.00
2018-04-06T10:04:25.612Z,18.30
2018-04-06T10:07:06.733Z,18.20
2018-04-06T10:09:39.507Z,17.80
2018-04-06T10:12:14.228Z,18.50
2018-04-06T10:14:47.784Z,18.70
2018-04-06T10:17:24.735Z,18.90
2018-04-06T10:19:57.481Z,18.30
2018-04-06T10:22:31.078Z,17.10
2018-04-06T10:25:03.873Z,16.40
2018-04-06T10:27:37.576Z,16.40
2018-04-06T10:30:11.321Z,16.90
2018-04-06T10:32:47.886Z,16.70
2018-04-06T10:35:21.037Z,16.70
2018-04-06T10:37:53.762Z,16.90
2018-04-06T10:40:27.310Z,17.10
2018-04-06T10:43:00.062Z,17.10
2018-04-06T10:45:32.822Z,16.90
2018-04-06T10:48:12.369Z,17.00
2018-04-06T10:50:45.159Z,16.80
2018-04-06T10:53:18.879Z,16.90
2018-04-06T10:55:51.615Z,16.80
2018-04-06T10:58:25.116Z,16.10
2018-04-06T11:00:57.870Z,16.10
2018-04-06T11:03:32.392Z,15.50
2018-04-06T11:06:23.896Z,15.40
2018-04-06T11:09:00.088Z,15.40
2018-04-06T11:14:21.400Z,15.30
2018-04-06T11:19:37.129Z,14.70
2018-04-06T11:22:09.866Z,14.40
2018-04-06T11:24:43.568Z,14.50
2018-04-06T11:27:16.301Z,14.70
2018-04-06T11:29:49.046Z,14.50
2018-04-06T11:32:37.527Z,14.60
2018-04-06T11:35:23.369Z,14.20
2018-04-06T13:41:29.553Z,12.70
2018-04-06T13:44:02.300Z,12.70
2018-04-06T13:46:35.797Z,12.60
2018-04-06T13:49:09.340Z,12.60
2018-04-06T13:51:42.058Z,12.60
2018-04-06T13:54:14.857Z,12.50
2018-04-06T13:56:47.554Z,12.40
2018-04-06T13:59:20.882Z,12.20
2018-04-06T14:01:53.707Z,12.10
2018-04-06T14:04:27.247Z,12.00
2018-04-06T14:06:59.987Z,12.00
2018-04-06T14:09:37.296Z,11.80
2018-04-06T14:12:10.078Z,11.70
2018-04-06T14:14:42.819Z,11.70
2018-04-06T14:17:15.524Z,11.50
2018-04-06T14:19:50.258Z,11.50
2018-04-06T14:22:22.989Z,11.50
2018-04-06T14:24:58.973Z,11.50
2018-04-06T14:27:32.479Z,11.50
2018-04-06T14:30:06.000Z,11.50
2018-04-06T14:32:38.706Z,11.50
2018-04-06T14:35:11.450Z,11.40
2018-04-06T14:37:44.150Z,11.40
2018-04-06T14:40:29.343Z,11.40
2018-04-06T14:43:02.060Z,11.40
2018-04-06T14:45:35.578Z,11.40
2018-04-06T14:48:08.275Z,11.30
2018-04-06T14:50:41.017Z,11.30
2018-04-06T14:53:14.541Z,11.30
2018-04-06T14:55:49.029Z,11.30
2018-04-06T14:58:22.511Z,11.30
2018-04-06T15:00:56.022Z,11.30
2018-04-06T15:03:29.538Z,11.30
2018-04-06T15:06:03.657Z,11.30
2018-04-06T15:08:40.603Z,11.30
2018-04-06T15:11:15.451Z,11.30
2018-04-06T15:13:50.444Z,11.30
2018-04-06T15:16:30.089Z,11.20
2018-04-06T15:19:05.257Z,11.20
2018-04-06T15:21:41.475Z,11.10
2018-04-06T15:24:16.153Z,11.10
2018-04-06T15:26:52.366Z,11.10
2018-04-06T15:29:25.894Z,11.00
2018-04-06T15:32:01.761Z,11.00
2018-04-06T15:34:38.127Z,11.00
2018-04-06T15:37:11.690Z,10.90
2018-04-06T15:40:03.638Z,10.90
2018-04-06T15:42:36.347Z,10.80
2018-04-06T15:45:09.093Z,10.80
2018-04-06T15:47:42.621Z,10.70
2018-04-06T15:50:15.367Z,10.70
2018-04-06T15:52:48.886Z,10.70
2018-04-06T15:55:32.058Z,10.70
2018-04-06T15:58:04.761Z,10.70
2018-04-06T16:00:38.377Z,10.70
2018-04-06T16:03:11.116Z,10.70
2018-04-06T16:05:43.915Z,10.70
2018-04-06T16:08:16.674Z,10.70
2018-04-06T16:10:59.173Z,10.50
2018-04-06T16:13:31.880Z,10.50
2018-04-06T16:16:04.630Z,10.40
2018-04-06T16:18:37.345Z,10.30
2018-04-06T16:21:10.851Z,10.20
2018-04-06T16:23:45.303Z,10.20
2018-04-06T16:26:19.101Z,10.10
2018-04-06T16:28:51.840Z,10.10
2018-04-06T16:31:26.528Z,10.20
2018-04-06T16:33:59.222Z,10.20
2018-04-06T16:36:31.966Z,10.20
2018-04-06T16:39:04.688Z,10.20
2018-04-06T16:41:37.492Z,10.20
2018-04-06T16:44:10.973Z,10.00
2018-04-06T16:46:43.717Z,10.00
2018-04-06T16:49:16.449Z,9.90
2018-04-06T16:51:50.938Z,9.70
2018-04-06T16:54:23.650Z,9.70
2018-04-06T16:57:00.922Z,9.60
2018-04-06T16:59:33.629Z,9.50
2018-04-06T17:02:06.376Z,9.40
2018-04-06T17:04:40.049Z,9.30
2018-04-06T17:07:12.785Z,9.20
2018-04-06T17:09:45.485Z,9.10
2018-04-06T17:12:25.364Z,9.00
2018-04-06T17:14:58.075Z,8.80
2018-04-06T17:17:31.585Z,8.70
2018-04-06T17:20:05.275Z,8.60
2018-04-06T17:22:38.799Z,8.40
2018-04-06T17:25:11.496Z,8.40
2018-04-06T17:28:07.886Z,8.30
2018-04-06T17:30:41.354Z,8.20
2018-04-06T17:33:15.056Z,8.10
2018-04-06T17:35:47.749Z,8.00
2018-04-06T17:38:20.500Z,8.00
2018-04-06T17:40:54.206Z,7.80
2018-04-06T17:43:26.958Z,7.70
2018-04-06T17:45:59.656Z,7.70
2018-04-06T17:48:32.397Z,7.70
2018-04-06T17:51:05.102Z,7.60
2018-04-06T17:53:37.842Z,7.60
2018-04-06T17:56:10.570Z,7.60
2018-04-06T17:58:43.307Z,7.50
2018-04-06T18:01:16.010Z,7.50
2018-04-06T18:03:49.522Z,7.40
2018-04-06T18:06:22.222Z,7.40
2018-04-06T18:09:04.838Z,7.20
2018-04-06T18:11:41.710Z,7.20
2018-04-06T18:17:03.118Z,7.10
2018-04-06T18:19:50.953Z,7.00
2018-04-06T18:22:30.821Z,7.00
2018-04-06T18:25:10.215Z,7.00
2018-04-06T18:30:41.788Z,7.00
2018-04-06T18:33:26.441Z,6.90
2018-04-06T18:36:00.408Z,6.90
2018-04-06T18:38:35.530Z,6.70
2018-04-06T18:41:08.262Z,6.70
2018-04-06T18:44:01.748Z,6.80
2018-04-06T18:46:36.304Z,6.90
2018-04-06T18:49:11.404Z,7.00
2018-04-06T18:51:44.120Z,7.00
2018-04-06T18:54:16.878Z,7.00
2018-04-06T18:56:55.717Z,6.90
2018-04-06T18:59:28.497Z,6.80
2018-04-06T19:02:01.220Z,6.70
2018-04-06T19:04:34.013Z,6.50
2018-04-06T19:07:06.721Z,6.30
2018-04-06T19:09:39.453Z,6.10
2018-04-06T19:12:12.201Z,6.00
2018-04-06T19:14:44.898Z,5.80
2018-04-06T19:17:18.392Z,5.60
2018-04-06T19:19:51.905Z,5.50
2018-04-06T19:22:24.629Z,5.50
2018-04-06T19:24:57.345Z,5.50
2018-04-06T19:27:31.863Z,5.50
2018-04-06T19:30:05.334Z,5.60
2018-04-06T19:32:43.453Z,5.60
2018-04-06T19:35:16.153Z,5.70
2018-04-06T19:37:49.651Z,5.70
2018-04-06T19:40:22.343Z,5.70
2018-04-06T19:45:41.155Z,5.60
2018-04-06T19:48:13.986Z,5.60
2018-04-06T19:50:48.947Z,5.70
2018-04-06T19:53:22.486Z,5.80
2018-04-06T19:55:57.952Z,5.80
2018-04-06T19:58:31.692Z,5.90
2018-04-06T20:01:07.768Z,5.90
2018-04-06T20:03:45.989Z,5.90
2018-04-06T20:06:27.825Z,5.80
2018-04-06T20:09:05.961Z,5.80
2018-04-06T20:11:42.519Z,5.80
2018-04-06T20:14:19.125Z,5.80
2018-04-06T20:16:51.830Z,5.80
2018-04-06T20:19:25.328Z,5.70
2018-04-06T20:21:58.792Z,5.60
2018-04-06T20:24:31.523Z,5.60
2018-04-06T20:27:06.274Z,5.60
2018-04-06T20:30:00.304Z,5.70
2018-04-06T20:32:33.777Z,5.90
2018-04-06T20:35:06.506Z,5.80
2018-04-06T20:37:39.985Z,5.90
2018-04-06T20:40:12.713Z,6.00
2018-04-06T20:42:46.408Z,5.90
2018-04-06T20:45:19.142Z,5.90
2018-04-06T20:47:53.570Z,5.90
2018-04-06T20:50:26.307Z,5.90
2018-04-06T20:52:59.793Z,5.80
2018-04-06T20:55:32.524Z,5.80
2018-04-06T20:58:06.150Z,5.70
2018-04-06T21:00:38.922Z,5.70
2018-04-06T21:03:11.621Z,5.70
2018-04-06T21:05:44.369Z,5.60
2018-04-06T21:08:17.106Z,5.70
2018-04-06T21:10:49.799Z,5.70
2018-04-06T21:13:24.338Z,5.80
2018-04-06T21:15:58.005Z,5.80
2018-04-06T21:18:30.801Z,5.80
2018-04-06T21:21:04.265Z,5.90
2018-04-06T21:23:37.976Z,5.80
2018-04-06T21:26:10.682Z,5.90
2018-04-06T21:28:51.060Z,5.90
2018-04-06T21:31:23.744Z,5.80
2018-04-06T21:34:03.078Z,5.80
2018-04-06T21:36:35.935Z,5.70
2018-04-06T21:39:09.402Z,5.60
2018-04-06T21:41:42.148Z,5.60
2018-04-06T21:44:33.535Z,5.70
2018-04-06T21:47:07.049Z,5.70
2018-04-06T21:49:39.742Z,5.70
2018-04-06T21:52:12.468Z,5.70
2018-04-06T21:54:45.163Z,5.70
2018-04-06T21:57:18.678Z,5.60
2018-04-06T21:59:51.407Z,5.60
2018-04-06T22:02:25.141Z,5.60
2018-04-06T22:04:59.557Z,5.60
2018-04-06T22:07:33.052Z,5.60
2018-04-06T22:10:06.525Z,5.60
2018-04-06T22:12:52.843Z,5.60
2018-04-06T22:15:33.082Z,5.60
2018-04-06T22:18:05.822Z,5.50
2018-04-06T22:20:38.585Z,5.40
2018-04-06T22:23:11.272Z,5.40
2018-04-06T22:28:29.120Z,5.40
2018-04-06T22:31:04.997Z,5.40
2018-04-06T22:33:37.963Z,5.50
2018-04-06T22:36:10.736Z,5.50
2018-04-06T22:38:43.452Z,5.30
2018-04-06T22:41:20.968Z,5.30
2018-04-06T22:43:53.747Z,5.30
2018-04-06T22:46:26.670Z,5.30
2018-04-06T22:48:59.754Z,5.20
2018-04-06T22:51:33.635Z,5.20
2018-04-06T22:54:08.456Z,5.20
2018-04-06T22:56:42.312Z,5.10
2018-04-06T22:59:22.368Z,5.10
2018-04-06T23:01:58.882Z,5.20
2018-04-06T23:04:32.356Z,5.10
2018-04-06T23:07:05.092Z,5.10
2018-04-06T23:09:37.789Z,5.10
2018-04-06T23:12:10.527Z,5.10
2018-04-06T23:14:43.991Z,5.10
2018-04-06T23:17:16.848Z,5.10
2018-04-06T23:19:50.520Z,5.10
2018-04-06T23:22:23.256Z,5.10
2018-04-06T23:24:55.954Z,5.10
2018-04-06T23:27:29.457Z,5.10
2018-04-06T23:30:14.486Z,5.10
2018-04-06T23:32:47.233Z,5.00
2018-04-06T23:35:19.941Z,5.10
2018-04-06T23:37:52.681Z,5.10
2018-04-06T23:40:25.445Z,5.10
2018-04-06T23:42:58.946Z,5.20
2018-04-06T23:45:33.613Z,5.10
2018-04-06T23:48:06.346Z,5.20
2018-04-06T23:50:39.810Z,5.20
2018-04-06T23:53:12.543Z,5.20
2018-04-06T23:55:45.240Z,5.20
2018-04-06T23:58:17.971Z,5.20
